createdAt,value
2023-04-16T00:01:18.825Z,101271.16
2023-04-16T00:03:47.046Z,101272.88
2023-04-16T00:06:15.289Z,101272.00
2023-04-16T00:08:43.563Z,101260.75
2023-04-16T00:11:11.479Z,101261.59
2023-04-16T00:13:39.428Z,101264.19
2023-04-16T00:16:09.455Z,101259.00
2023-04-16T00:18:37.254Z,101259.84
2023-04-16T00:21:05.384Z,101263.34
2023-04-16T00:23:33.271Z,101270.25
2023-04-16T00:26:01.068Z,101274.59
2023-04-16T00:28:28.894Z,101270.25
2023-04-16T00:30:57.014Z,101265.06
2023-04-16T00:33:26.354Z,101267.66
2023-04-16T00:35:54.232Z,101274.59
2023-04-16T00:38:22.354Z,101274.59
2023-04-16T00:40:50.175Z,101268.56
2023-04-16T00:43:22.801Z,101270.28
2023-04-16T00:45:51.380Z,101265.94
2023-04-16T00:48:19.506Z,101273.75
2023-04-16T00:50:49.390Z,101273.75
2023-04-16T00:53:17.713Z,101275.50
2023-04-16T00:55:45.933Z,101269.41
2023-04-16T00:58:14.164Z,101272.88
2023-04-16T01:00:42.115Z,101275.47
2023-04-16T01:03:10.649Z,101273.72
2023-04-16T01:05:38.752Z,101282.41
2023-04-16T01:08:08.118Z,101285.88
2023-04-16T01:10:36.139Z,101284.16
2023-04-16T01:13:03.974Z,101280.66
2023-04-16T01:15:31.744Z,101284.16
2023-04-16T01:17:59.657Z,101287.59
2023-04-16T01:20:27.560Z,101279.78
2023-04-16T01:22:56.863Z,101278.94
2023-04-16T01:25:24.962Z,101277.22
2023-04-16T01:27:54.826Z,101282.41
2023-04-16T01:30:22.665Z,101291.97
2023-04-16T01:33:02.539Z,101296.28
2023-04-16T01:35:31.059Z,101296.25
2023-04-16T01:38:00.284Z,101291.06
2023-04-16T01:40:28.115Z,101294.56
2023-04-16T01:42:56.033Z,101304.13
2023-04-16T01:45:23.941Z,101300.63
2023-04-16T01:47:52.070Z,101303.22
2023-04-16T01:50:21.124Z,101298.88
2023-04-16T01:52:49.410Z,101295.38
2023-04-16T01:55:18.750Z,101291.94
2023-04-16T01:57:46.592Z,101298.03
2023-04-16T02:00:15.968Z,101290.19
2023-04-16T02:02:47.298Z,101309.28
2023-04-16T02:05:21.386Z,101298.88
2023-04-16T02:07:49.206Z,101316.22
2023-04-16T02:10:19.256Z,101298.91
2023-04-16T02:12:47.683Z,101305.00
2023-04-16T02:15:16.374Z,101304.97
2023-04-16T02:17:46.506Z,101308.47
2023-04-16T02:20:14.684Z,101299.75
2023-04-16T02:22:49.826Z,101302.38
2023-04-16T02:25:23.089Z,101299.75
2023-04-16T02:27:51.583Z,101295.44
2023-04-16T02:30:27.151Z,101294.56
2023-04-16T02:32:55.834Z,101298.88
2023-04-16T02:35:23.880Z,101292.78
2023-04-16T02:37:51.731Z,101293.66
2023-04-16T02:40:19.690Z,101288.44
2023-04-16T02:42:50.636Z,101295.41
2023-04-16T02:45:18.683Z,101296.28
2023-04-16T02:47:46.821Z,101298.00
2023-04-16T02:50:15.068Z,101291.91
2023-04-16T02:52:43.815Z,101291.06
2023-04-16T02:55:12.592Z,101298.88
2023-04-16T02:57:40.735Z,101300.63
2023-04-16T03:00:11.488Z,101292.78
2023-04-16T03:02:39.548Z,101304.94
2023-04-16T03:05:08.194Z,101297.16
2023-04-16T03:07:36.225Z,101290.19
2023-04-16T03:10:04.244Z,101294.53
2023-04-16T03:12:47.342Z,101301.50
2023-04-16T03:15:16.603Z,101301.50
2023-04-16T03:17:44.921Z,101296.28
2023-04-16T03:20:14.399Z,101297.16
2023-04-16T03:22:42.613Z,101297.13
2023-04-16T03:25:10.837Z,101301.50
2023-04-16T03:27:39.720Z,101297.09
2023-04-16T03:30:08.701Z,101303.19
2023-04-16T03:32:38.590Z,101299.75
2023-04-16T03:35:07.695Z,101308.41
2023-04-16T03:37:36.395Z,101304.06
2023-04-16T03:40:05.716Z,101311.91
2023-04-16T03:42:33.761Z,101313.63
2023-04-16T03:45:01.772Z,101318.00
2023-04-16T03:47:29.834Z,101309.28
2023-04-16T03:50:02.493Z,101317.97
2023-04-16T03:52:30.505Z,101317.97
2023-04-16T03:54:58.332Z,101314.50
2023-04-16T03:57:28.718Z,101311.84
2023-04-16T04:00:02.193Z,101316.19
2023-04-16T04:02:42.271Z,101318.81
2023-04-16T04:05:19.019Z,101324.88
2023-04-16T04:07:48.185Z,101336.19
2023-04-16T04:10:16.157Z,101318.81
2023-04-16T04:12:44.427Z,101337.91
2023-04-16T04:15:13.522Z,101334.41
2023-04-16T04:17:43.513Z,101331.81
2023-04-16T04:20:12.950Z,101334.41
2023-04-16T04:22:46.281Z,101339.63
2023-04-16T04:25:14.229Z,101335.25
2023-04-16T04:27:42.591Z,101333.50
2023-04-16T04:30:11.579Z,101347.41
2023-04-16T04:32:40.528Z,101342.19
2023-04-16T04:35:09.321Z,101346.59
2023-04-16T04:37:37.620Z,101338.78
2023-04-16T04:40:15.548Z,101342.22
2023-04-16T04:42:43.747Z,101349.16
2023-04-16T04:45:12.267Z,101345.72
2023-04-16T04:47:42.131Z,101344.00
2023-04-16T04:50:10.904Z,101348.31
2023-04-16T04:52:39.130Z,101344.84
2023-04-16T04:55:09.048Z,101350.06
2023-04-16T04:57:38.354Z,101352.66
2023-04-16T05:00:10.021Z,101348.34
2023-04-16T05:02:48.305Z,101345.72
2023-04-16T05:05:16.342Z,101346.63
2023-04-16T05:07:44.233Z,101352.69
2023-04-16T05:10:12.081Z,101351.00
2023-04-16T05:12:41.349Z,101350.13
2023-04-16T05:15:10.451Z,101360.56
2023-04-16T05:17:38.330Z,101363.13
2023-04-16T05:20:07.267Z,101363.13
2023-04-16T05:22:35.108Z,101362.31
2023-04-16T05:25:03.363Z,101360.56
2023-04-16T05:27:31.204Z,101368.31
2023-04-16T05:30:00.436Z,101369.22
2023-04-16T05:32:28.416Z,101374.41
2023-04-16T05:34:56.330Z,101377.03
2023-04-16T05:37:24.525Z,101374.44
2023-04-16T05:39:52.353Z,101378.78
2023-04-16T05:42:20.206Z,101390.06
2023-04-16T05:44:48.229Z,101394.41
2023-04-16T05:47:17.511Z,101402.25
2023-04-16T05:49:45.435Z,101401.41
2023-04-16T05:52:13.441Z,101404.88
2023-04-16T05:54:41.250Z,101407.50
2023-04-16T05:57:09.063Z,101404.88
2023-04-16T05:59:36.878Z,101399.66
2023-04-16T06:02:04.758Z,101403.16
2023-04-16T06:04:35.672Z,101400.56
2023-04-16T06:07:03.527Z,101403.19
2023-04-16T06:09:31.298Z,101402.31
2023-04-16T06:11:59.176Z,101395.34
2023-04-16T06:14:26.976Z,101403.19
2023-04-16T06:16:54.813Z,101393.63
2023-04-16T06:19:22.605Z,101397.13
2023-04-16T06:21:52.028Z,101401.44
2023-04-16T06:24:20.333Z,101407.53
2023-04-16T06:26:48.120Z,101411.88
2023-04-16T06:29:16.066Z,101406.66
2023-04-16T06:31:43.939Z,101414.47
2023-04-16T06:34:11.801Z,101409.25
2023-04-16T06:36:39.582Z,101415.34
2023-04-16T06:39:09.142Z,101412.78
2023-04-16T06:41:37.348Z,101408.44
2023-04-16T06:44:05.151Z,101427.50
2023-04-16T06:46:33.236Z,101431.88
2023-04-16T06:49:01.089Z,101426.66
2023-04-16T06:51:29.088Z,101432.75
2023-04-16T06:53:56.936Z,101423.19
2023-04-16T06:56:26.223Z,101431.88
2023-04-16T06:58:54.048Z,101440.56
2023-04-16T07:01:21.915Z,101437.97
2023-04-16T07:03:49.872Z,101437.97
2023-04-16T07:06:18.040Z,101429.28
2023-04-16T07:08:45.846Z,101436.25
2023-04-16T07:11:13.694Z,101450.13
2023-04-16T07:13:43.065Z,101451.88
2023-04-16T07:16:10.999Z,101462.31
2023-04-16T07:18:38.985Z,101454.47
2023-04-16T07:21:06.965Z,101454.50
2023-04-16T07:23:34.955Z,101456.22
2023-04-16T07:26:02.747Z,101463.19
2023-04-16T07:28:30.696Z,101459.72
2023-04-16T07:30:59.942Z,101458.88
2023-04-16T07:33:27.883Z,101458.88
2023-04-16T07:35:55.782Z,101453.69
2023-04-16T07:38:23.560Z,101464.97
2023-04-16T07:40:51.421Z,101469.31
2023-04-16T07:43:19.310Z,101465.91
2023-04-16T07:45:47.179Z,101464.16
2023-04-16T07:48:16.368Z,101465.06
2023-04-16T07:50:44.320Z,101470.28
2023-04-16T07:53:12.148Z,101465.94
2023-04-16T07:55:39.871Z,101478.13
2023-04-16T07:58:09.569Z,101465.97
2023-04-16T08:00:37.490Z,101477.28
2023-04-16T08:03:05.481Z,101479.91
2023-04-16T08:05:34.989Z,101479.03
2023-04-16T08:08:02.882Z,101485.13
2023-04-16T08:10:30.841Z,101489.50
2023-04-16T08:12:58.680Z,101484.28
2023-04-16T08:15:26.635Z,101484.28
2023-04-16T08:17:54.759Z,101485.16
2023-04-16T08:20:22.788Z,101494.75
2023-04-16T08:22:51.978Z,101493.00
2023-04-16T08:25:20.199Z,101506.06
2023-04-16T08:27:47.976Z,101496.50
2023-04-16T08:30:16.673Z,101502.56
2023-04-16T08:32:44.752Z,101499.94
2023-04-16T08:35:13.249Z,101499.97
2023-04-16T08:37:41.085Z,101506.00
2023-04-16T08:40:11.057Z,101506.03
2023-04-16T08:42:42.046Z,101519.09
2023-04-16T08:45:16.062Z,101513.03
2023-04-16T08:47:47.391Z,101523.44
2023-04-16T08:50:16.469Z,101518.25
2023-04-16T08:52:48.118Z,101517.38
2023-04-16T08:55:19.883Z,101523.47
2023-04-16T08:57:53.400Z,101529.53
2023-04-16T09:00:22.295Z,101531.28
2023-04-16T09:02:51.650Z,101533.91
2023-04-16T09:05:21.374Z,101526.03
2023-04-16T09:07:49.746Z,101529.53
2023-04-16T09:10:19.933Z,101529.56
2023-04-16T09:12:47.928Z,101532.16
2023-04-16T09:15:15.796Z,101532.13
2023-04-16T09:17:43.961Z,101534.72
2023-04-16T09:20:12.567Z,101533.81
2023-04-16T09:22:41.086Z,101532.88
2023-04-16T09:25:10.054Z,101528.47
2023-04-16T09:27:40.288Z,101530.19
2023-04-16T09:30:22.080Z,101537.91
2023-04-16T09:32:50.425Z,101539.47
2023-04-16T09:35:20.036Z,101538.47
2023-04-16T09:37:57.763Z,101546.78
2023-04-16T09:40:27.507Z,101532.94
2023-04-16T09:43:00.733Z,101548.75
2023-04-16T09:45:33.972Z,101548.06
2023-04-16T09:48:05.832Z,101550.59
2023-04-16T09:50:33.763Z,101555.03
2023-04-16T09:53:04.547Z,101552.50
2023-04-16T09:55:33.528Z,101556.13
2023-04-16T09:58:03.358Z,101557.81
2023-04-16T10:00:32.068Z,101563.97
2023-04-16T10:03:07.183Z,101560.63
2023-04-16T10:05:35.274Z,101560.56
2023-04-16T10:08:03.367Z,101565.84
2023-04-16T10:10:31.243Z,101564.94
2023-04-16T10:12:59.657Z,101567.56
2023-04-16T10:15:29.313Z,101569.31
2023-04-16T10:17:58.702Z,101569.31
2023-04-16T10:20:27.397Z,101570.13
2023-04-16T10:22:56.083Z,101573.66
2023-04-16T10:25:24.450Z,101565.78
2023-04-16T10:27:53.323Z,101578.84
2023-04-16T10:30:22.118Z,101577.06
2023-04-16T10:32:53.284Z,101577.09
2023-04-16T10:35:21.541Z,101577.00
2023-04-16T10:37:51.460Z,101576.03
2023-04-16T10:40:24.411Z,101579.53
2023-04-16T10:42:56.884Z,101573.25
2023-04-16T10:45:31.659Z,101570.84
2023-04-16T10:48:05.263Z,101577.78
2023-04-16T10:50:37.290Z,101570.69
2023-04-16T10:53:19.012Z,101572.47
2023-04-16T10:56:12.246Z,101575.97
2023-04-16T10:58:40.572Z,101575.06
2023-04-16T11:01:09.191Z,101573.31
2023-04-16T11:03:42.101Z,101569.91
2023-04-16T11:06:16.608Z,101573.41
2023-04-16T11:08:54.377Z,101569.94
2023-04-16T11:11:23.679Z,101573.44
2023-04-16T11:13:56.901Z,101580.19
2023-04-16T11:16:27.142Z,101571.41
2023-04-16T11:18:57.604Z,101573.06
2023-04-16T11:21:26.639Z,101575.63
2023-04-16T11:23:54.832Z,101579.06
2023-04-16T11:26:27.281Z,101574.66
2023-04-16T11:28:56.971Z,101578.13
2023-04-16T11:31:27.081Z,101578.97
2023-04-16T11:33:59.391Z,101571.94
2023-04-16T11:36:28.005Z,101577.25
2023-04-16T11:39:03.332Z,101565.81
2023-04-16T11:41:31.214Z,101571.66
2023-04-16T11:43:59.171Z,101570.50
2023-04-16T11:46:39.183Z,101566.06
2023-04-16T11:49:08.845Z,101568.31
2023-04-16T11:51:41.192Z,101571.06
2023-04-16T11:54:11.852Z,101576.75
2023-04-16T11:56:46.831Z,101575.19
2023-04-16T11:59:17.115Z,101577.28
2023-04-16T12:01:48.389Z,101578.34
2023-04-16T12:04:19.929Z,101578.41
2023-04-16T12:07:07.918Z,101578.44
2023-04-16T12:09:38.699Z,101578.66
2023-04-16T12:12:26.038Z,101578.38
2023-04-16T12:14:56.772Z,101586.00
2023-04-16T12:17:25.229Z,101589.41
2023-04-16T12:19:58.188Z,101583.91
2023-04-16T12:22:30.112Z,101585.91
2023-04-16T12:25:00.492Z,101587.84
2023-04-16T12:27:42.341Z,101591.16
2023-04-16T12:30:11.309Z,101578.25
2023-04-16T12:32:39.450Z,101578.44
2023-04-16T12:35:09.979Z,101578.34
2023-04-16T12:37:38.448Z,101587.09
2023-04-16T12:40:08.813Z,101591.41
2023-04-16T12:42:37.196Z,101590.47
2023-04-16T12:45:07.017Z,101590.34
2023-04-16T12:47:35.243Z,101591.22
2023-04-16T12:50:03.685Z,101578.03
2023-04-16T12:52:33.042Z,101584.66
2023-04-16T12:55:02.766Z,101582.91
2023-04-16T12:57:30.614Z,101584.63
2023-04-16T12:59:59.695Z,101577.06
2023-04-16T13:02:28.345Z,101577.44
2023-04-16T13:04:56.755Z,101574.09
2023-04-16T13:07:26.911Z,101573.16
2023-04-16T13:09:56.576Z,101581.19
2023-04-16T13:12:24.752Z,101581.41
2023-04-16T13:14:52.635Z,101574.88
2023-04-16T13:17:20.793Z,101575.75
2023-04-16T13:19:48.712Z,101579.50
2023-04-16T13:22:16.650Z,101573.53
2023-04-16T13:24:44.617Z,101576.00
2023-04-16T13:27:16.104Z,101577.94
2023-04-16T13:29:44.568Z,101578.72
2023-04-16T13:32:13.940Z,101573.22
2023-04-16T13:34:41.922Z,101573.13
2023-04-16T13:37:09.830Z,101570.88
2023-04-16T13:39:37.766Z,101570.50
2023-04-16T13:42:05.967Z,101571.94
2023-04-16T13:44:35.419Z,101566.28
2023-04-16T13:47:03.645Z,101565.69
2023-04-16T13:49:35.625Z,101567.81
2023-04-16T13:52:04.062Z,101570.78
2023-04-16T13:54:32.420Z,101569.56
2023-04-16T13:57:00.395Z,101565.16
2023-04-16T13:59:28.906Z,101569.59
2023-04-16T14:01:58.678Z,101571.47
2023-04-16T14:04:26.613Z,101568.78
2023-04-16T14:06:54.526Z,101569.56
2023-04-16T14:09:22.566Z,101569.31
2023-04-16T14:11:50.826Z,101571.94
2023-04-16T14:14:18.768Z,101577.84
2023-04-16T14:16:46.782Z,101566.50
2023-04-16T14:19:16.660Z,101578.56
2023-04-16T14:21:44.766Z,101572.94
2023-04-16T14:24:12.653Z,101570.84
2023-04-16T14:26:40.533Z,101571.38
2023-04-16T14:29:08.549Z,101573.41
2023-04-16T14:31:37.225Z,101570.88
2023-04-16T14:34:05.156Z,101570.41
2023-04-16T14:36:34.522Z,101567.84
2023-04-16T14:39:02.443Z,101575.09
2023-04-16T14:41:31.257Z,101579.72
2023-04-16T14:44:00.934Z,101576.13
2023-04-16T14:46:29.107Z,101580.59
2023-04-16T14:48:57.210Z,101571.91
2023-04-16T14:51:26.368Z,101577.84
2023-04-16T14:53:55.781Z,101571.59
2023-04-16T14:56:23.736Z,101571.69
2023-04-16T14:58:51.634Z,101579.53
2023-04-16T15:01:19.616Z,101573.84
2023-04-16T15:03:47.598Z,101574.44
2023-04-16T15:06:16.603Z,101571.13
2023-04-16T15:08:44.608Z,101575.63
2023-04-16T15:11:13.997Z,101573.56
2023-04-16T15:13:41.946Z,101566.56
2023-04-16T15:16:10.112Z,101567.91
2023-04-16T15:18:39.750Z,101564.56
2023-04-16T15:21:08.759Z,101562.41
2023-04-16T15:23:37.860Z,101567.72
2023-04-16T15:26:05.840Z,101573.34
2023-04-16T15:28:35.726Z,101565.09
2023-04-16T15:31:03.734Z,101564.91
2023-04-16T15:33:31.917Z,101562.47
2023-04-16T15:35:59.705Z,101570.88
2023-04-16T15:38:29.716Z,101571.81
2023-04-16T15:41:00.664Z,101575.38
2023-04-16T15:43:29.788Z,101576.44
2023-04-16T15:45:59.882Z,101561.59
2023-04-16T15:48:28.433Z,101567.09
2023-04-16T15:50:56.493Z,101567.44
2023-04-16T15:53:25.487Z,101569.09
2023-04-16T15:55:53.947Z,101563.69
2023-04-16T15:58:23.318Z,101571.34
2023-04-16T16:00:51.434Z,101561.94
2023-04-16T16:03:22.134Z,101563.59
2023-04-16T16:05:50.297Z,101565.47
2023-04-16T16:08:18.603Z,101563.88
2023-04-16T16:10:46.782Z,101567.03
2023-04-16T16:13:18.268Z,101564.03
2023-04-16T16:15:46.343Z,101567.84
2023-04-16T16:18:14.236Z,101561.88
2023-04-16T16:20:43.823Z,101561.19
2023-04-16T16:23:11.846Z,101553.53
2023-04-16T16:25:39.750Z,101557.09
2023-04-16T16:28:07.672Z,101565.97
2023-04-16T16:30:36.905Z,101562.16
2023-04-16T16:33:04.941Z,101567.75
2023-04-16T16:35:32.845Z,101559.56
2023-04-16T16:38:02.075Z,101569.47
2023-04-16T16:40:30.105Z,101570.97
2023-04-16T16:42:58.045Z,101563.59
2023-04-16T16:45:27.177Z,101567.41
2023-04-16T16:47:55.487Z,101579.84
2023-04-16T16:50:23.318Z,101562.56
2023-04-16T16:52:51.521Z,101571.56
2023-04-16T16:55:21.159Z,101576.03
2023-04-16T16:57:49.308Z,101577.88
2023-04-16T17:00:20.229Z,101578.97
2023-04-16T17:02:51.121Z,101581.72
2023-04-16T17:05:19.345Z,101580.41
2023-04-16T17:07:47.332Z,101582.47
2023-04-16T17:10:20.067Z,101572.22
2023-04-16T17:12:50.075Z,101580.13
2023-04-16T17:15:20.694Z,101582.09
2023-04-16T17:17:50.046Z,101586.53
2023-04-16T17:20:18.068Z,101590.91
2023-04-16T17:22:45.914Z,101595.28
2023-04-16T17:25:13.891Z,101584.72
2023-04-16T17:27:41.968Z,101589.22
2023-04-16T17:30:11.777Z,101589.22
2023-04-16T17:32:39.631Z,101596.31
2023-04-16T17:35:09.404Z,101591.94
2023-04-16T17:37:37.267Z,101600.69
2023-04-16T17:40:07.502Z,101595.41
2023-04-16T17:42:35.707Z,101591.06
2023-04-16T17:45:03.951Z,101592.78
2023-04-16T17:47:35.568Z,101599.03
2023-04-16T17:50:03.519Z,101602.50
2023-04-16T17:52:31.457Z,101600.78
2023-04-16T17:55:01.668Z,101606.06
2023-04-16T17:57:29.800Z,101610.56
2023-04-16T17:59:57.878Z,101608.88
2023-04-16T18:02:26.149Z,101608.88
2023-04-16T18:04:55.719Z,101613.22
2023-04-16T18:07:23.824Z,101614.19
2023-04-16T18:09:51.696Z,101622.13
2023-04-16T18:12:19.715Z,101613.31
2023-04-16T18:14:47.489Z,101617.72
2023-04-16T18:17:15.547Z,101618.66
2023-04-16T18:19:44.736Z,101626.50
2023-04-16T18:22:14.358Z,101632.63
2023-04-16T18:24:42.298Z,101630.88
2023-04-16T18:27:10.406Z,101630.97
2023-04-16T18:29:39.905Z,101641.38
2023-04-16T18:32:11.786Z,101633.59
2023-04-16T18:34:40.030Z,101636.38
2023-04-16T18:37:07.958Z,101638.25
2023-04-16T18:39:37.748Z,101642.69
2023-04-16T18:42:06.363Z,101647.88
2023-04-16T18:44:34.248Z,101645.25
2023-04-16T18:47:02.303Z,101649.63
2023-04-16T18:49:30.528Z,101654.97
2023-04-16T18:51:58.414Z,101658.59
2023-04-16T18:54:27.556Z,101662.97
2023-04-16T18:56:59.059Z,101658.66
2023-04-16T18:59:28.577Z,101655.22
2023-04-16T19:01:57.420Z,101653.47
2023-04-16T19:04:25.471Z,101658.72
2023-04-16T19:06:53.361Z,101655.22
2023-04-16T19:09:21.352Z,101664.84
2023-04-16T19:11:50.614Z,101666.53
2023-04-16T19:14:20.020Z,101654.38
2023-04-16T19:16:48.429Z,101662.31
2023-04-16T19:19:17.828Z,101657.94
2023-04-16T19:21:45.677Z,101658.84
2023-04-16T19:24:13.627Z,101672.81
2023-04-16T19:26:41.560Z,101674.56
2023-04-16T19:29:09.901Z,101664.97
2023-04-16T19:31:39.533Z,101671.09
2023-04-16T19:34:07.395Z,101668.47
2023-04-16T19:36:35.669Z,101666.75
2023-04-16T19:39:03.895Z,101676.31
2023-04-16T19:41:32.059Z,101675.47
2023-04-16T19:44:00.496Z,101678.94
2023-04-16T19:46:28.825Z,101678.06
2023-04-16T19:48:58.078Z,101680.66
2023-04-16T19:51:27.104Z,101679.81
2023-04-16T19:53:55.349Z,101675.44
2023-04-16T19:56:23.254Z,101674.56
2023-04-16T19:58:51.092Z,101683.34
2023-04-16T20:01:18.958Z,101682.47
2023-04-16T20:03:46.883Z,101678.09
2023-04-16T20:06:17.375Z,101685.97
2023-04-16T20:08:45.732Z,101678.09
2023-04-16T20:11:13.576Z,101680.75
2023-04-16T20:13:41.364Z,101676.38
2023-04-16T20:16:09.392Z,101671.19
2023-04-16T20:18:41.216Z,101676.44
2023-04-16T20:21:09.235Z,101680.78
2023-04-16T20:23:38.586Z,101680.81
2023-04-16T20:26:06.976Z,101681.66
2023-04-16T20:28:34.886Z,101674.72
2023-04-16T20:31:02.755Z,101681.69
2023-04-16T20:33:30.617Z,101683.44
2023-04-16T20:35:58.548Z,101674.75
2023-04-16T20:38:26.366Z,101672.13
2023-04-16T20:41:06.416Z,101671.25
2023-04-16T20:43:38.474Z,101676.50
2023-04-16T20:46:06.731Z,101673.03
2023-04-16T20:48:34.956Z,101673.03
2023-04-16T20:51:03.832Z,101667.78
2023-04-16T20:53:32.550Z,101670.44
2023-04-16T20:56:01.781Z,101669.53
2023-04-16T20:58:30.129Z,101672.16
2023-04-16T21:00:58.941Z,101680.91
2023-04-16T21:03:26.917Z,101666.06
2023-04-16T21:05:56.194Z,101679.19
2023-04-16T21:08:24.652Z,101678.34
2023-04-16T21:10:52.510Z,101679.22
2023-04-16T21:13:21.829Z,101674.88
2023-04-16T21:15:50.078Z,101674.88
2023-04-16T21:18:18.574Z,101667.94
2023-04-16T21:20:46.491Z,101680.16
2023-04-16T21:23:14.373Z,101678.38
2023-04-16T21:25:42.197Z,101677.53
2023-04-16T21:28:10.097Z,101679.31
2023-04-16T21:30:39.443Z,101673.19
2023-04-16T21:33:07.894Z,101674.91
2023-04-16T21:35:35.786Z,101677.53
2023-04-16T21:38:03.719Z,101693.25
2023-04-16T21:40:31.475Z,101680.16
2023-04-16T21:42:59.340Z,101674.94
2023-04-16T21:45:28.432Z,101677.56
2023-04-16T21:47:58.878Z,101678.44
2023-04-16T21:50:26.808Z,101678.44
2023-04-16T21:52:54.787Z,101682.78
2023-04-16T21:55:22.672Z,101681.06
2023-04-16T21:57:50.549Z,101688.00
2023-04-16T22:00:19.122Z,101686.28
2023-04-16T22:02:47.027Z,101681.94
2023-04-16T22:05:16.463Z,101678.47
2023-04-16T22:07:44.362Z,101691.53
2023-04-16T22:10:14.855Z,101698.47
2023-04-16T22:12:44.754Z,101683.66
2023-04-16T22:15:13.792Z,101685.41
2023-04-16T22:17:41.926Z,101681.91
2023-04-16T22:20:13.107Z,101687.16
2023-04-16T22:22:42.877Z,101686.25
2023-04-16T22:25:11.462Z,101684.53
2023-04-16T22:27:39.538Z,101682.81
2023-04-16T22:30:09.267Z,101683.66
2023-04-16T22:32:37.247Z,101680.16
2023-04-16T22:35:05.653Z,101678.44
2023-04-16T22:37:33.580Z,101682.78
2023-04-16T22:40:07.481Z,101681.06
2023-04-16T22:42:35.464Z,101681.03
2023-04-16T22:45:03.292Z,101679.31
2023-04-16T22:47:31.180Z,101685.38
2023-04-16T22:50:00.410Z,101683.66
2023-04-16T22:52:28.302Z,101686.28
2023-04-16T22:54:56.132Z,101679.31
2023-04-16T22:57:26.124Z,101689.75
2023-04-16T22:59:54.036Z,101680.19
2023-04-16T23:02:22.262Z,101685.41
2023-04-16T23:04:50.094Z,101680.16
2023-04-16T23:07:17.938Z,101683.66
2023-04-16T23:09:45.982Z,101679.31
2023-04-16T23:12:13.867Z,101685.41
2023-04-16T23:14:45.735Z,101684.53
2023-04-16T23:17:13.992Z,101688.91
2023-04-16T23:19:41.883Z,101674.94
2023-04-16T23:22:10.037Z,101680.16
2023-04-16T23:24:37.877Z,101685.38
2023-04-16T23:27:05.704Z,101680.16
2023-04-16T23:29:33.630Z,101683.66
2023-04-16T23:32:02.784Z,101680.19
2023-04-16T23:34:30.618Z,101688.88
2023-04-16T23:36:58.467Z,101687.13
2023-04-16T23:39:26.313Z,101680.16
2023-04-16T23:41:54.154Z,101685.38
2023-04-16T23:44:22.010Z,101675.84
2023-04-16T23:46:49.803Z,101677.56
2023-04-16T23:49:19.042Z,101674.94
2023-04-16T23:51:46.906Z,101676.69
2023-04-16T23:54:14.788Z,101677.56
2023-04-16T23:56:42.578Z,101673.19
2023-04-16T23:59:11.165Z,101673.22
